Pagina principale
METAR-TAF:

METAR-TAF

Aeroporti :

Luxeuil-les-Bains, Francia

latitudine: 47-47N, longitudine: 006-21E, altezza: 278 m

Osservazione

Il bollettino è stato emesso 3 ore e 7 minuti fa, alle 05:00 UTC
Vento calmo
Temperature 14°C
Umidità 94%
Pressione 1020 hPa
Visibilità 10 km o più
nessuna nube inferiore a 1500 m e nessun cumulonembo

METAR: LFSX 210500Z AUTO 00000KT CAVOK 14/13 Q1020 NOSIG

Ora: 10:07 (08:07 UTC)

Previsione

Il bollettino è stato emesso 6 ore e 7 minuti fa, alle 02:00 UTC
Previsione valida dal 21 alle 03 UTC al 22 alle 03 UTC
Vento 7 kt da nord-ovest
Visibilità 10 km o più
Nubi sparse ad un'altezza di 3000 ft

TAF: LFSX 210200Z 2103/2203 32007KT 9999 SCT030

Osservazioni e previsioni meteorologiche di più di 4000 aeroporti (messaggi METAR e TAF).

Le stazioni disponibili sono rappresentate dai dischi gialli e rossi sulla carta.

Puntare il mouse per vedere il nome della stazione.

Clicca sopra per visualizzare le osservazioni e previsioni meteorologiche.

Per cambiare la mappa : fare clic sui pulsanti verdi con una croce nera per ingrandire, il pulsante verde con un trattino per diminuire, o sulla freccia verde per le mappe adiacenti.


METAR-TAF: